sensor_id;sensor_type;location;lat;lon;timestamp;P1;durP1;ratioP1;P2;durP2;ratioP2
1320;SDS011;653;51.480;11.992;2022-12-18T00:01:01;123.53;;;34.77;;
1320;SDS011;653;51.480;11.992;2022-12-18T00:03:32;143.37;;;38.87;;
1320;SDS011;653;51.480;11.992;2022-12-18T00:05:58;121.30;;;36.00;;
1320;SDS011;653;51.480;11.992;2022-12-18T00:08:23;155.07;;;38.73;;
1320;SDS011;653;51.480;11.992;2022-12-18T00:10:49;122.20;;;36.50;;
1320;SDS011;653;51.480;11.992;2022-12-18T00:13:14;81.13;;;35.60;;
1320;SDS011;653;51.480;11.992;2022-12-18T00:15:40;110.67;;;36.77;;
1320;SDS011;653;51.480;11.992;2022-12-18T00:18:05;89.07;;;33.90;;
1320;SDS011;653;51.480;11.992;2022-12-18T00:20:35;105.90;;;34.27;;
1320;SDS011;653;51.480;11.992;2022-12-18T00:23:01;120.73;;;37.30;;
1320;SDS011;653;51.480;11.992;2022-12-18T00:25:26;105.70;;;36.03;;
1320;SDS011;653;51.480;11.992;2022-12-18T00:27:52;125.77;;;39.90;;
1320;SDS011;653;51.480;11.992;2022-12-18T00:30:17;145.27;;;40.50;;
1320;SDS011;653;51.480;11.992;2022-12-18T00:32:43;139.47;;;37.87;;
1320;SDS011;653;51.480;11.992;2022-12-18T00:35:08;195.03;;;41.10;;
1320;SDS011;653;51.480;11.992;2022-12-18T00:37:34;145.83;;;46.47;;
1320;SDS011;653;51.480;11.992;2022-12-18T00:40:03;112.23;;;37.20;;
1320;SDS011;653;51.480;11.992;2022-12-18T00:42:28;97.93;;;34.80;;
1320;SDS011;653;51.480;11.992;2022-12-18T00:45:12;122.40;;;37.57;;
1320;SDS011;653;51.480;11.992;2022-12-18T00:47:38;122.30;;;37.83;;
1320;SDS011;653;51.480;11.992;2022-12-18T00:50:04;162.67;;;41.40;;
1320;SDS011;653;51.480;11.992;2022-12-18T00:52:30;71.77;;;34.60;;
1320;SDS011;653;51.480;11.992;2022-12-18T00:54:55;132.27;;;39.57;;
1320;SDS011;653;51.480;11.992;2022-12-18T00:57:21;111.03;;;35.50;;
1320;SDS011;653;51.480;11.992;2022-12-18T00:59:46;62.20;;;31.70;;
1320;SDS011;653;51.480;11.992;2022-12-18T01:02:11;95.40;;;35.70;;
1320;SDS011;653;51.480;11.992;2022-12-18T01:04:37;113.77;;;36.50;;
1320;SDS011;653;51.480;11.992;2022-12-18T01:07:02;68.90;;;32.67;;
1320;SDS011;653;51.480;11.992;2022-12-18T01:09:28;91.60;;;34.23;;
1320;SDS011;653;51.480;11.992;2022-12-18T01:11:53;88.30;;;33.67;;
1320;SDS011;653;51.480;11.992;2022-12-18T01:14:19;99.30;;;34.97;;
1320;SDS011;653;51.480;11.992;2022-12-18T01:16:44;164.27;;;42.60;;
1320;SDS011;653;51.480;11.992;2022-12-18T01:19:09;182.33;;;45.97;;
1320;SDS011;653;51.480;11.992;2022-12-18T01:21:35;97.80;;;36.43;;
1320;SDS011;653;51.480;11.992;2022-12-18T01:24:00;130.20;;;40.17;;
1320;SDS011;653;51.480;11.992;2022-12-18T01:26:26;163.40;;;38.60;;
1320;SDS011;653;51.480;11.992;2022-12-18T01:28:54;121.33;;;40.70;;
1320;SDS011;653;51.480;11.992;2022-12-18T01:31:28;98.50;;;37.10;;
1320;SDS011;653;51.480;11.992;2022-12-18T01:33:55;104.43;;;38.03;;
1320;SDS011;653;51.480;11.992;2022-12-18T01:36:22;106.10;;;38.00;;
1320;SDS011;653;51.480;11.992;2022-12-18T01:38:52;112.90;;;38.33;;
1320;SDS011;653;51.480;11.992;2022-12-18T01:41:19;128.60;;;43.27;;
1320;SDS011;653;51.480;11.992;2022-12-18T01:43:51;113.03;;;37.43;;
1320;SDS011;653;51.480;11.992;2022-12-18T01:46:22;90.87;;;31.17;;
1320;SDS011;653;51.480;11.992;2022-12-18T01:48:49;114.70;;;37.67;;
1320;SDS011;653;51.480;11.992;2022-12-18T01:51:16;78.47;;;33.30;;
1320;SDS011;653;51.480;11.992;2022-12-18T01:53:42;84.83;;;35.13;;
1320;SDS011;653;51.480;11.992;2022-12-18T01:56:08;87.93;;;34.73;;
1320;SDS011;653;51.480;11.992;2022-12-18T02:01:09;92.60;;;34.33;;
1320;SDS011;653;51.480;11.992;2022-12-18T02:03:35;153.10;;;40.53;;
1320;SDS011;653;51.480;11.992;2022-12-18T02:06:09;110.33;;;36.57;;
1320;SDS011;653;51.480;11.992;2022-12-18T02:08:43;85.83;;;34.57;;
1320;SDS011;653;51.480;11.992;2022-12-18T02:16:52;99.97;;;35.60;;
1320;SDS011;653;51.480;11.992;2022-12-18T02:27:20;102.00;;;37.47;;
1320;SDS011;653;51.480;11.992;2022-12-18T02:29:52;81.13;;;35.90;;
1320;SDS011;653;51.480;11.992;2022-12-18T02:32:29;76.07;;;35.30;;
1320;SDS011;653;51.480;11.992;2022-12-18T02:34:57;74.90;;;34.47;;
1320;SDS011;653;51.480;11.992;2022-12-18T02:37:23;72.87;;;32.60;;
1320;SDS011;653;51.480;11.992;2022-12-18T02:39:51;70.30;;;34.30;;
1320;SDS011;653;51.480;11.992;2022-12-18T02:42:18;73.47;;;33.60;;
1320;SDS011;653;51.480;11.992;2022-12-18T02:44:44;101.90;;;34.03;;
1320;SDS011;653;51.480;11.992;2022-12-18T02:47:12;74.17;;;31.80;;
1320;SDS011;653;51.480;11.992;2022-12-18T02:49:54;124.43;;;38.07;;
1320;SDS011;653;51.480;11.992;2022-12-18T02:58:17;93.23;;;34.17;;
1320;SDS011;653;51.480;11.992;2022-12-18T03:01:24;91.17;;;34.03;;
1320;SDS011;653;51.480;11.992;2022-12-18T03:04:07;77.13;;;32.13;;
1320;SDS011;653;51.480;11.992;2022-12-18T03:06:38;94.97;;;34.20;;
1320;SDS011;653;51.480;11.992;2022-12-18T03:09:06;83.80;;;33.77;;
1320;SDS011;653;51.480;11.992;2022-12-18T03:11:36;97.83;;;37.10;;
1320;SDS011;653;51.480;11.992;2022-12-18T03:14:22;162.80;;;39.73;;
1320;SDS011;653;51.480;11.992;2022-12-18T03:16:49;90.10;;;36.27;;
1320;SDS011;653;51.480;11.992;2022-12-18T03:19:16;102.77;;;32.70;;
1320;SDS011;653;51.480;11.992;2022-12-18T03:21:47;105.97;;;36.47;;
1320;SDS011;653;51.480;11.992;2022-12-18T03:24:15;89.63;;;31.33;;
1320;SDS011;653;51.480;11.992;2022-12-18T03:26:42;78.13;;;32.87;;
1320;SDS011;653;51.480;11.992;2022-12-18T03:29:12;84.73;;;34.77;;
1320;SDS011;653;51.480;11.992;2022-12-18T03:31:43;88.93;;;32.93;;
1320;SDS011;653;51.480;11.992;2022-12-18T03:34:13;81.17;;;31.70;;
1320;SDS011;653;51.480;11.992;2022-12-18T03:36:41;77.50;;;31.43;;
1320;SDS011;653;51.480;11.992;2022-12-18T03:39:07;89.07;;;32.73;;
1320;SDS011;653;51.480;11.992;2022-12-18T03:41:47;90.27;;;31.30;;
1320;SDS011;653;51.480;11.992;2022-12-18T03:50:36;75.80;;;29.43;;
1320;SDS011;653;51.480;11.992;2022-12-18T03:55:50;66.00;;;27.93;;
1320;SDS011;653;51.480;11.992;2022-12-18T03:58:17;92.67;;;34.93;;
1320;SDS011;653;51.480;11.992;2022-12-18T04:00:45;80.53;;;32.00;;
1320;SDS011;653;51.480;11.992;2022-12-18T04:03:10;76.27;;;33.47;;
1320;SDS011;653;51.480;11.992;2022-12-18T04:05:37;109.37;;;33.00;;
1320;SDS011;653;51.480;11.992;2022-12-18T04:08:03;87.13;;;35.43;;
1320;SDS011;653;51.480;11.992;2022-12-18T04:10:29;79.00;;;31.30;;
1320;SDS011;653;51.480;11.992;2022-12-18T04:12:58;60.60;;;30.47;;
1320;SDS011;653;51.480;11.992;2022-12-18T04:15:23;73.70;;;31.87;;
1320;SDS011;653;51.480;11.992;2022-12-18T04:17:49;88.53;;;34.70;;
1320;SDS011;653;51.480;11.992;2022-12-18T04:20:15;87.13;;;35.10;;
1320;SDS011;653;51.480;11.992;2022-12-18T04:22:41;66.53;;;32.00;;
1320;SDS011;653;51.480;11.992;2022-12-18T04:25:07;67.40;;;30.23;;
1320;SDS011;653;51.480;11.992;2022-12-18T04:27:36;56.93;;;30.10;;
1320;SDS011;653;51.480;11.992;2022-12-18T04:30:02;53.43;;;29.10;;
1320;SDS011;653;51.480;11.992;2022-12-18T04:32:28;70.67;;;30.20;;
1320;SDS011;653;51.480;11.992;2022-12-18T04:34:53;55.73;;;29.93;;
1320;SDS011;653;51.480;11.992;2022-12-18T04:37:18;57.90;;;29.83;;
1320;SDS011;653;51.480;11.992;2022-12-18T04:39:44;59.40;;;29.70;;
1320;SDS011;653;51.480;11.992;2022-12-18T04:42:09;68.73;;;30.00;;
1320;SDS011;653;51.480;11.992;2022-12-18T04:44:34;64.07;;;28.67;;
1320;SDS011;653;51.480;11.992;2022-12-18T04:46:59;67.90;;;30.47;;
1320;SDS011;653;51.480;11.992;2022-12-18T04:49:25;67.30;;;29.57;;
1320;SDS011;653;51.480;11.992;2022-12-18T04:51:50;70.00;;;30.60;;
1320;SDS011;653;51.480;11.992;2022-12-18T04:54:19;59.77;;;29.20;;
1320;SDS011;653;51.480;11.992;2022-12-18T04:56:46;53.33;;;27.60;;
1320;SDS011;653;51.480;11.992;2022-12-18T04:59:11;62.20;;;29.80;;
1320;SDS011;653;51.480;11.992;2022-12-18T05:01:37;57.53;;;29.07;;
1320;SDS011;653;51.480;11.992;2022-12-18T05:04:02;55.37;;;29.40;;
1320;SDS011;653;51.480;11.992;2022-12-18T05:06:28;62.73;;;29.80;;
1320;SDS011;653;51.480;11.992;2022-12-18T05:08:53;54.30;;;29.90;;
1320;SDS011;653;51.480;11.992;2022-12-18T05:11:18;49.17;;;27.37;;
1320;SDS011;653;51.480;11.992;2022-12-18T05:13:44;56.07;;;27.90;;
1320;SDS011;653;51.480;11.992;2022-12-18T05:16:10;56.80;;;28.37;;
1320;SDS011;653;51.480;11.992;2022-12-18T05:18:36;54.53;;;27.40;;
1320;SDS011;653;51.480;11.992;2022-12-18T05:21:02;54.37;;;28.50;;
1320;SDS011;653;51.480;11.992;2022-12-18T05:23:28;44.77;;;25.90;;
1320;SDS011;653;51.480;11.992;2022-12-18T05:25:55;56.50;;;29.47;;
1320;SDS011;653;51.480;11.992;2022-12-18T05:28:24;57.47;;;28.67;;
1320;SDS011;653;51.480;11.992;2022-12-18T05:30:51;48.30;;;25.70;;
1320;SDS011;653;51.480;11.992;2022-12-18T05:33:17;50.93;;;25.87;;
1320;SDS011;653;51.480;11.992;2022-12-18T05:35:43;57.33;;;26.80;;
1320;SDS011;653;51.480;11.992;2022-12-18T05:38:09;50.10;;;25.93;;
1320;SDS011;653;51.480;11.992;2022-12-18T05:40:34;51.73;;;26.73;;
1320;SDS011;653;51.480;11.992;2022-12-18T05:43:00;53.50;;;25.63;;
1320;SDS011;653;51.480;11.992;2022-12-18T05:45:25;48.03;;;24.70;;
1320;SDS011;653;51.480;11.992;2022-12-18T05:47:50;46.83;;;26.53;;
1320;SDS011;653;51.480;11.992;2022-12-18T05:50:16;50.83;;;26.40;;
1320;SDS011;653;51.480;11.992;2022-12-18T05:52:41;53.20;;;26.33;;
1320;SDS011;653;51.480;11.992;2022-12-18T05:55:07;54.07;;;25.27;;
1320;SDS011;653;51.480;11.992;2022-12-18T05:57:32;50.60;;;24.63;;
1320;SDS011;653;51.480;11.992;2022-12-18T05:59:58;51.77;;;27.53;;
1320;SDS011;653;51.480;11.992;2022-12-18T06:02:23;50.57;;;25.83;;
1320;SDS011;653;51.480;11.992;2022-12-18T06:04:48;55.63;;;27.20;;
1320;SDS011;653;51.480;11.992;2022-12-18T06:07:14;51.10;;;24.20;;
1320;SDS011;653;51.480;11.992;2022-12-18T06:09:39;53.13;;;29.07;;
1320;SDS011;653;51.480;11.992;2022-12-18T06:12:05;47.67;;;25.60;;
1320;SDS011;653;51.480;11.992;2022-12-18T06:14:31;47.87;;;23.20;;
1320;SDS011;653;51.480;11.992;2022-12-18T06:16:56;46.20;;;25.57;;
1320;SDS011;653;51.480;11.992;2022-12-18T06:19:21;43.43;;;25.60;;
1320;SDS011;653;51.480;11.992;2022-12-18T06:21:47;45.27;;;25.47;;
1320;SDS011;653;51.480;11.992;2022-12-18T06:24:12;50.77;;;24.40;;
1320;SDS011;653;51.480;11.992;2022-12-18T06:26:38;39.87;;;24.00;;
1320;SDS011;653;51.480;11.992;2022-12-18T06:29:04;39.63;;;24.23;;
1320;SDS011;653;51.480;11.992;2022-12-18T06:31:30;42.93;;;23.67;;
1320;SDS011;653;51.480;11.992;2022-12-18T06:33:55;40.00;;;23.10;;
1320;SDS011;653;51.480;11.992;2022-12-18T06:36:21;42.23;;;23.37;;
1320;SDS011;653;51.480;11.992;2022-12-18T06:38:46;51.07;;;25.30;;
1320;SDS011;653;51.480;11.992;2022-12-18T06:41:19;40.87;;;23.73;;
1320;SDS011;653;51.480;11.992;2022-12-18T06:43:45;45.63;;;23.00;;
1320;SDS011;653;51.480;11.992;2022-12-18T06:46:10;48.70;;;23.80;;
1320;SDS011;653;51.480;11.992;2022-12-18T06:48:36;39.53;;;22.20;;
1320;SDS011;653;51.480;11.992;2022-12-18T06:51:02;45.03;;;24.80;;
1320;SDS011;653;51.480;11.992;2022-12-18T06:53:27;43.30;;;24.67;;
1320;SDS011;653;51.480;11.992;2022-12-18T06:55:59;41.27;;;23.00;;
1320;SDS011;653;51.480;11.992;2022-12-18T06:58:25;40.50;;;21.20;;
1320;SDS011;653;51.480;11.992;2022-12-18T07:00:50;38.80;;;21.00;;
1320;SDS011;653;51.480;11.992;2022-12-18T07:03:16;37.77;;;21.87;;
1320;SDS011;653;51.480;11.992;2022-12-18T07:05:42;41.60;;;20.73;;
1320;SDS011;653;51.480;11.992;2022-12-18T07:08:07;38.87;;;21.50;;
1320;SDS011;653;51.480;11.992;2022-12-18T07:10:33;43.57;;;24.57;;
1320;SDS011;653;51.480;11.992;2022-12-18T07:12:58;44.13;;;20.03;;
1320;SDS011;653;51.480;11.992;2022-12-18T07:15:24;38.13;;;24.23;;
1320;SDS011;653;51.480;11.992;2022-12-18T07:17:49;46.13;;;22.47;;
1320;SDS011;653;51.480;11.992;2022-12-18T07:20:14;41.30;;;21.83;;
1320;SDS011;653;51.480;11.992;2022-12-18T07:22:40;35.93;;;22.63;;
1320;SDS011;653;51.480;11.992;2022-12-18T07:25:06;44.00;;;23.80;;
1320;SDS011;653;51.480;11.992;2022-12-18T07:27:32;38.50;;;19.83;;
1320;SDS011;653;51.480;11.992;2022-12-18T07:29:57;37.90;;;21.13;;
1320;SDS011;653;51.480;11.992;2022-12-18T07:32:22;40.60;;;21.30;;
1320;SDS011;653;51.480;11.992;2022-12-18T07:34:48;40.13;;;22.53;;
1320;SDS011;653;51.480;11.992;2022-12-18T07:37:14;34.40;;;20.00;;
1320;SDS011;653;51.480;11.992;2022-12-18T07:39:39;34.60;;;20.50;;
1320;SDS011;653;51.480;11.992;2022-12-18T07:42:05;33.90;;;19.53;;
1320;SDS011;653;51.480;11.992;2022-12-18T07:44:49;30.07;;;18.47;;
1320;SDS011;653;51.480;11.992;2022-12-18T07:47:14;31.07;;;17.17;;
1320;SDS011;653;51.480;11.992;2022-12-18T07:49:40;38.10;;;18.70;;
1320;SDS011;653;51.480;11.992;2022-12-18T07:52:05;31.40;;;16.80;;
1320;SDS011;653;51.480;11.992;2022-12-18T07:54:31;28.47;;;17.97;;
1320;SDS011;653;51.480;11.992;2022-12-18T07:56:56;29.40;;;17.20;;
1320;SDS011;653;51.480;11.992;2022-12-18T07:59:22;33.07;;;18.73;;
1320;SDS011;653;51.480;11.992;2022-12-18T08:01:47;37.93;;;18.57;;
1320;SDS011;653;51.480;11.992;2022-12-18T08:04:12;28.20;;;17.73;;
1320;SDS011;653;51.480;11.992;2022-12-18T08:06:38;30.30;;;18.83;;
1320;SDS011;653;51.480;11.992;2022-12-18T08:09:03;28.00;;;18.00;;
1320;SDS011;653;51.480;11.992;2022-12-18T08:11:29;36.43;;;19.60;;
1320;SDS011;653;51.480;11.992;2022-12-18T08:13:54;29.83;;;16.80;;
1320;SDS011;653;51.480;11.992;2022-12-18T08:16:20;37.83;;;21.77;;
1320;SDS011;653;51.480;11.992;2022-12-18T08:18:47;31.23;;;19.10;;
1320;SDS011;653;51.480;11.992;2022-12-18T08:21:13;27.67;;;16.97;;
1320;SDS011;653;51.480;11.992;2022-12-18T08:23:48;37.60;;;18.60;;
1320;SDS011;653;51.480;11.992;2022-12-18T08:26:13;30.80;;;17.73;;
1320;SDS011;653;51.480;11.992;2022-12-18T08:28:39;33.67;;;18.37;;
1320;SDS011;653;51.480;11.992;2022-12-18T08:31:05;31.67;;;17.13;;
1320;SDS011;653;51.480;11.992;2022-12-18T08:33:31;30.13;;;17.23;;
1320;SDS011;653;51.480;11.992;2022-12-18T08:36:00;36.87;;;20.60;;
1320;SDS011;653;51.480;11.992;2022-12-18T08:38:25;31.17;;;19.13;;
1320;SDS011;653;51.480;11.992;2022-12-18T08:41:00;29.87;;;16.40;;
1320;SDS011;653;51.480;11.992;2022-12-18T08:43:27;32.70;;;18.83;;
1320;SDS011;653;51.480;11.992;2022-12-18T08:46:11;29.13;;;16.93;;
1320;SDS011;653;51.480;11.992;2022-12-18T08:48:37;36.53;;;17.33;;
1320;SDS011;653;51.480;11.992;2022-12-18T08:51:02;25.80;;;16.77;;
1320;SDS011;653;51.480;11.992;2022-12-18T08:53:27;33.20;;;17.63;;
1320;SDS011;653;51.480;11.992;2022-12-18T08:55:53;29.97;;;18.60;;
1320;SDS011;653;51.480;11.992;2022-12-18T08:58:18;31.63;;;17.70;;
1320;SDS011;653;51.480;11.992;2022-12-18T09:00:46;30.87;;;15.70;;
1320;SDS011;653;51.480;11.992;2022-12-18T09:03:12;30.40;;;18.60;;
1320;SDS011;653;51.480;11.992;2022-12-18T09:05:42;31.93;;;17.73;;
1320;SDS011;653;51.480;11.992;2022-12-18T09:08:08;28.73;;;17.80;;
1320;SDS011;653;51.480;11.992;2022-12-18T09:10:33;32.23;;;18.47;;
1320;SDS011;653;51.480;11.992;2022-12-18T09:12:59;27.80;;;16.57;;
1320;SDS011;653;51.480;11.992;2022-12-18T09:15:24;25.80;;;17.23;;
1320;SDS011;653;51.480;11.992;2022-12-18T09:17:50;27.13;;;16.93;;
1320;SDS011;653;51.480;11.992;2022-12-18T09:20:18;28.40;;;16.37;;
1320;SDS011;653;51.480;11.992;2022-12-18T09:22:43;35.17;;;19.03;;
1320;SDS011;653;51.480;11.992;2022-12-18T09:25:08;30.73;;;16.40;;
1320;SDS011;653;51.480;11.992;2022-12-18T09:27:34;32.30;;;16.17;;
1320;SDS011;653;51.480;11.992;2022-12-18T09:29:59;27.03;;;15.50;;
1320;SDS011;653;51.480;11.992;2022-12-18T09:32:25;25.47;;;15.40;;
1320;SDS011;653;51.480;11.992;2022-12-18T09:34:50;30.67;;;18.73;;
1320;SDS011;653;51.480;11.992;2022-12-18T09:37:16;32.27;;;19.27;;
1320;SDS011;653;51.480;11.992;2022-12-18T09:39:41;28.70;;;17.00;;
1320;SDS011;653;51.480;11.992;2022-12-18T09:42:09;31.07;;;19.00;;
1320;SDS011;653;51.480;11.992;2022-12-18T09:44:46;30.93;;;18.83;;
1320;SDS011;653;51.480;11.992;2022-12-18T09:49:43;31.67;;;18.70;;
1320;SDS011;653;51.480;11.992;2022-12-18T09:52:16;35.40;;;19.93;;
1320;SDS011;653;51.480;11.992;2022-12-18T09:54:53;31.20;;;18.67;;
1320;SDS011;653;51.480;11.992;2022-12-18T09:57:22;26.87;;;18.37;;
1320;SDS011;653;51.480;11.992;2022-12-18T09:59:50;27.03;;;16.80;;
1320;SDS011;653;51.480;11.992;2022-12-18T10:02:23;30.77;;;17.00;;
1320;SDS011;653;51.480;11.992;2022-12-18T10:04:55;28.33;;;15.20;;
1320;SDS011;653;51.480;11.992;2022-12-18T10:10:13;25.13;;;13.80;;
1320;SDS011;653;51.480;11.992;2022-12-18T10:15:24;29.10;;;14.27;;
1320;SDS011;653;51.480;11.992;2022-12-18T10:20:45;18.80;;;12.93;;
1320;SDS011;653;51.480;11.992;2022-12-18T10:23:17;20.20;;;13.30;;
1320;SDS011;653;51.480;11.992;2022-12-18T10:26:09;19.00;;;12.57;;
1320;SDS011;653;51.480;11.992;2022-12-18T10:28:36;18.67;;;12.47;;
1320;SDS011;653;51.480;11.992;2022-12-18T10:31:07;23.43;;;14.40;;
1320;SDS011;653;51.480;11.992;2022-12-18T10:33:42;17.03;;;12.30;;
1320;SDS011;653;51.480;11.992;2022-12-18T10:36:07;26.43;;;13.83;;
1320;SDS011;653;51.480;11.992;2022-12-18T10:38:33;25.20;;;13.30;;
1320;SDS011;653;51.480;11.992;2022-12-18T10:41:00;22.73;;;13.70;;
1320;SDS011;653;51.480;11.992;2022-12-18T10:46:36;18.60;;;13.40;;
1320;SDS011;653;51.480;11.992;2022-12-18T10:49:02;18.13;;;12.03;;
1320;SDS011;653;51.480;11.992;2022-12-18T10:51:28;18.73;;;13.50;;
1320;SDS011;653;51.480;11.992;2022-12-18T10:53:57;21.73;;;14.37;;
1320;SDS011;653;51.480;11.992;2022-12-18T10:56:27;21.83;;;14.10;;
1320;SDS011;653;51.480;11.992;2022-12-18T10:59:01;18.37;;;12.83;;
1320;SDS011;653;51.480;11.992;2022-12-18T11:01:32;18.13;;;12.70;;
1320;SDS011;653;51.480;11.992;2022-12-18T11:04:19;16.33;;;12.37;;
1320;SDS011;653;51.480;11.992;2022-12-18T11:06:53;24.10;;;13.20;;
1320;SDS011;653;51.480;11.992;2022-12-18T11:09:33;18.80;;;12.53;;
1320;SDS011;653;51.480;11.992;2022-12-18T11:12:01;25.03;;;14.13;;
1320;SDS011;653;51.480;11.992;2022-12-18T11:14:29;17.50;;;12.57;;
1320;SDS011;653;51.480;11.992;2022-12-18T11:16:58;18.40;;;12.83;;
1320;SDS011;653;51.480;11.992;2022-12-18T11:27:23;22.53;;;14.43;;
1320;SDS011;653;51.480;11.992;2022-12-18T11:29:50;16.80;;;11.63;;
1320;SDS011;653;51.480;11.992;2022-12-18T11:32:31;17.33;;;11.40;;
1320;SDS011;653;51.480;11.992;2022-12-18T11:37:33;20.63;;;12.73;;
1320;SDS011;653;51.480;11.992;2022-12-18T11:40:06;15.10;;;10.80;;
1320;SDS011;653;51.480;11.992;2022-12-18T11:42:43;22.83;;;13.00;;
1320;SDS011;653;51.480;11.992;2022-12-18T11:50:20;16.13;;;10.23;;
1320;SDS011;653;51.480;11.992;2022-12-18T11:52:49;18.50;;;11.33;;
1320;SDS011;653;51.480;11.992;2022-12-18T11:55:15;13.70;;;9.87;;
1320;SDS011;653;51.480;11.992;2022-12-18T11:58:08;16.00;;;12.63;;
1320;SDS011;653;51.480;11.992;2022-12-18T12:00:58;16.30;;;10.57;;
1320;SDS011;653;51.480;11.992;2022-12-18T12:03:39;17.90;;;10.83;;
1320;SDS011;653;51.480;11.992;2022-12-18T12:09:19;19.67;;;12.03;;
1320;SDS011;653;51.480;11.992;2022-12-18T12:14:53;18.40;;;12.03;;
1320;SDS011;653;51.480;11.992;2022-12-18T12:19:55;17.70;;;11.60;;
1320;SDS011;653;51.480;11.992;2022-12-18T12:22:37;18.20;;;11.27;;
1320;SDS011;653;51.480;11.992;2022-12-18T12:30:50;16.27;;;11.13;;
1320;SDS011;653;51.480;11.992;2022-12-18T12:39:08;17.60;;;11.20;;
1320;SDS011;653;51.480;11.992;2022-12-18T12:41:37;14.30;;;9.87;;
1320;SDS011;653;51.480;11.992;2022-12-18T12:44:30;15.67;;;11.17;;
1320;SDS011;653;51.480;11.992;2022-12-18T12:47:00;22.27;;;14.00;;
1320;SDS011;653;51.480;11.992;2022-12-18T12:49:30;20.57;;;13.43;;
1320;SDS011;653;51.480;11.992;2022-12-18T12:52:07;24.30;;;14.80;;
1320;SDS011;653;51.480;11.992;2022-12-18T12:54:37;18.80;;;13.23;;
1320;SDS011;653;51.480;11.992;2022-12-18T12:59:39;16.50;;;10.57;;
1320;SDS011;653;51.480;11.992;2022-12-18T13:04:50;17.30;;;10.77;;
1320;SDS011;653;51.480;11.992;2022-12-18T13:07:35;14.60;;;10.80;;
1320;SDS011;653;51.480;11.992;2022-12-18T13:15:31;14.97;;;10.77;;
1320;SDS011;653;51.480;11.992;2022-12-18T13:20:40;17.50;;;12.20;;
1320;SDS011;653;51.480;11.992;2022-12-18T13:25:58;17.33;;;11.53;;
1320;SDS011;653;51.480;11.992;2022-12-18T13:31:11;15.30;;;12.10;;
1320;SDS011;653;51.480;11.992;2022-12-18T13:33:41;17.70;;;12.70;;
1320;SDS011;653;51.480;11.992;2022-12-18T13:36:23;21.20;;;13.80;;
1320;SDS011;653;51.480;11.992;2022-12-18T13:41:43;20.10;;;13.60;;
1320;SDS011;653;51.480;11.992;2022-12-18T13:44:13;23.97;;;16.00;;
1320;SDS011;653;51.480;11.992;2022-12-18T13:46:45;26.43;;;16.23;;
1320;SDS011;653;51.480;11.992;2022-12-18T13:51:39;24.73;;;17.47;;
1320;SDS011;653;51.480;11.992;2022-12-18T13:57:03;26.57;;;16.67;;
1320;SDS011;653;51.480;11.992;2022-12-18T13:59:36;22.50;;;15.10;;
1320;SDS011;653;51.480;11.992;2022-12-18T14:02:15;25.50;;;17.50;;
1320;SDS011;653;51.480;11.992;2022-12-18T14:04:44;22.57;;;16.07;;
1320;SDS011;653;51.480;11.992;2022-12-18T14:07:12;21.13;;;16.00;;
1320;SDS011;653;51.480;11.992;2022-12-18T14:09:41;26.80;;;17.63;;
1320;SDS011;653;51.480;11.992;2022-12-18T14:12:20;27.23;;;17.07;;
1320;SDS011;653;51.480;11.992;2022-12-18T14:15:50;26.07;;;16.90;;
1320;SDS011;653;51.480;11.992;2022-12-18T14:17:59;23.00;;;14.53;;
1320;SDS011;653;51.480;11.992;2022-12-18T14:20:29;23.80;;;16.47;;
1320;SDS011;653;51.480;11.992;2022-12-18T14:22:56;26.13;;;17.60;;
1320;SDS011;653;51.480;11.992;2022-12-18T14:25:26;25.77;;;16.87;;
1320;SDS011;653;51.480;11.992;2022-12-18T14:27:53;30.17;;;18.13;;
1320;SDS011;653;51.480;11.992;2022-12-18T14:30:37;25.67;;;17.27;;
1320;SDS011;653;51.480;11.992;2022-12-18T14:33:13;26.27;;;16.67;;
1320;SDS011;653;51.480;11.992;2022-12-18T14:43:29;34.10;;;19.30;;
1320;SDS011;653;51.480;11.992;2022-12-18T14:45:57;32.53;;;18.33;;
1320;SDS011;653;51.480;11.992;2022-12-18T14:48:39;34.60;;;17.53;;
1320;SDS011;653;51.480;11.992;2022-12-18T14:51:15;30.00;;;18.23;;
1320;SDS011;653;51.480;11.992;2022-12-18T14:56:33;29.73;;;18.93;;
1320;SDS011;653;51.480;11.992;2022-12-18T14:59:04;29.40;;;17.47;;
1320;SDS011;653;51.480;11.992;2022-12-18T15:01:35;32.60;;;18.23;;
1320;SDS011;653;51.480;11.992;2022-12-18T15:04:02;32.53;;;18.13;;
1320;SDS011;653;51.480;11.992;2022-12-18T15:06:32;32.50;;;19.23;;
1320;SDS011;653;51.480;11.992;2022-12-18T15:09:00;40.30;;;18.03;;
1320;SDS011;653;51.480;11.992;2022-12-18T15:11:30;29.80;;;18.73;;
1320;SDS011;653;51.480;11.992;2022-12-18T15:17:03;33.23;;;19.97;;
1320;SDS011;653;51.480;11.992;2022-12-18T15:19:34;30.30;;;18.53;;
1320;SDS011;653;51.480;11.992;2022-12-18T15:22:02;35.07;;;19.83;;
1320;SDS011;653;51.480;11.992;2022-12-18T15:24:29;31.03;;;17.90;;
1320;SDS011;653;51.480;11.992;2022-12-18T15:26:56;39.17;;;20.40;;
1320;SDS011;653;51.480;11.992;2022-12-18T15:29:22;30.20;;;19.27;;
1320;SDS011;653;51.480;11.992;2022-12-18T15:34:30;36.13;;;20.03;;
1320;SDS011;653;51.480;11.992;2022-12-18T15:36:56;35.97;;;22.70;;
1320;SDS011;653;51.480;11.992;2022-12-18T15:39:21;36.10;;;20.50;;
1320;SDS011;653;51.480;11.992;2022-12-18T15:41:50;36.93;;;21.43;;
1320;SDS011;653;51.480;11.992;2022-12-18T15:44:34;31.87;;;20.37;;
1320;SDS011;653;51.480;11.992;2022-12-18T15:46:59;34.80;;;21.67;;
1320;SDS011;653;51.480;11.992;2022-12-18T15:49:25;26.83;;;19.60;;
1320;SDS011;653;51.480;11.992;2022-12-18T15:51:54;35.87;;;21.43;;
1320;SDS011;653;51.480;11.992;2022-12-18T15:54:22;43.57;;;22.10;;
1320;SDS011;653;51.480;11.992;2022-12-18T15:57:08;30.87;;;20.40;;
1320;SDS011;653;51.480;11.992;2022-12-18T15:59:54;38.70;;;21.30;;
1320;SDS011;653;51.480;11.992;2022-12-18T16:02:23;39.70;;;23.50;;
1320;SDS011;653;51.480;11.992;2022-12-18T16:04:49;34.70;;;21.90;;
1320;SDS011;653;51.480;11.992;2022-12-18T16:07:15;33.87;;;20.97;;
1320;SDS011;653;51.480;11.992;2022-12-18T16:09:41;37.00;;;21.33;;
1320;SDS011;653;51.480;11.992;2022-12-18T16:12:09;41.03;;;22.87;;
1320;SDS011;653;51.480;11.992;2022-12-18T16:14:40;31.47;;;19.70;;
1320;SDS011;653;51.480;11.992;2022-12-18T16:17:05;35.30;;;21.90;;
1320;SDS011;653;51.480;11.992;2022-12-18T16:19:34;36.13;;;23.37;;
1320;SDS011;653;51.480;11.992;2022-12-18T16:22:00;44.93;;;23.73;;
1320;SDS011;653;51.480;11.992;2022-12-18T16:24:27;38.23;;;26.60;;
1320;SDS011;653;51.480;11.992;2022-12-18T16:26:53;44.10;;;28.93;;
1320;SDS011;653;51.480;11.992;2022-12-18T16:29:21;37.93;;;23.57;;
1320;SDS011;653;51.480;11.992;2022-12-18T16:31:51;41.97;;;23.80;;
1320;SDS011;653;51.480;11.992;2022-12-18T16:34:24;46.00;;;23.30;;
1320;SDS011;653;51.480;11.992;2022-12-18T16:36:53;35.77;;;22.60;;
1320;SDS011;653;51.480;11.992;2022-12-18T16:39:19;38.43;;;24.57;;
1320;SDS011;653;51.480;11.992;2022-12-18T16:41:45;37.83;;;24.13;;
1320;SDS011;653;51.480;11.992;2022-12-18T16:44:11;37.17;;;23.00;;
1320;SDS011;653;51.480;11.992;2022-12-18T16:46:37;33.33;;;22.80;;
1320;SDS011;653;51.480;11.992;2022-12-18T16:49:03;45.80;;;26.70;;
1320;SDS011;653;51.480;11.992;2022-12-18T16:51:28;38.50;;;22.53;;
1320;SDS011;653;51.480;11.992;2022-12-18T16:53:54;47.00;;;27.53;;
1320;SDS011;653;51.480;11.992;2022-12-18T16:56:20;47.73;;;26.13;;
1320;SDS011;653;51.480;11.992;2022-12-18T16:58:52;42.63;;;24.87;;